sensor_id;sensor_type;location;lat;lon;timestamp;pressure;altitude;pressure_sealevel;temperature;humidity
59043;BME280;44826;51.596;5.624;2023-03-15T00:01:42;101133.56;;;1.86;82.89
59043;BME280;44826;51.596;5.624;2023-03-15T00:04:11;101138.66;;;1.85;83.04
59043;BME280;44826;51.596;5.624;2023-03-15T00:06:36;101139.44;;;1.79;83.11
59043;BME280;44826;51.596;5.624;2023-03-15T00:09:02;101136.00;;;1.78;82.90
59043;BME280;44826;51.596;5.624;2023-03-15T00:11:29;101147.00;;;1.73;82.88
59043;BME280;44826;51.596;5.624;2023-03-15T00:13:57;101148.66;;;1.67;83.67
59043;BME280;44826;51.596;5.624;2023-03-15T00:16:23;101136.72;;;1.70;84.42
59043;BME280;44826;51.596;5.624;2023-03-15T00:18:52;101131.72;;;1.79;84.41
59043;BME280;44826;51.596;5.624;2023-03-15T00:21:18;101133.56;;;1.86;83.61
59043;BME280;44826;51.596;5.624;2023-03-15T00:23:44;101133.59;;;1.89;83.99
59043;BME280;44826;51.596;5.624;2023-03-15T00:26:10;101134.50;;;1.93;83.77
59043;BME280;44826;51.596;5.624;2023-03-15T00:28:36;101137.09;;;1.94;83.55
59043;BME280;44826;51.596;5.624;2023-03-15T00:31:06;101132.84;;;1.95;84.01
59043;BME280;44826;51.596;5.624;2023-03-15T00:33:33;101128.59;;;1.99;80.27
59043;BME280;44826;51.596;5.624;2023-03-15T00:36:04;101130.31;;;2.00;82.98
59043;BME280;44826;51.596;5.624;2023-03-15T00:38:31;101130.38;;;2.03;83.23
59043;BME280;44826;51.596;5.624;2023-03-15T00:40:57;101128.66;;;2.03;83.62
59043;BME280;44826;51.596;5.624;2023-03-15T00:43:23;101132.94;;;2.03;83.59
59043;BME280;44826;51.596;5.624;2023-03-15T00:45:48;101131.22;;;2.02;83.68
59043;BME280;44826;51.596;5.624;2023-03-15T00:48:13;101137.19;;;2.02;83.89
59043;BME280;44826;51.596;5.624;2023-03-15T00:50:39;101138.03;;;2.01;84.34
59043;BME280;44826;51.596;5.624;2023-03-15T00:53:04;101132.91;;;2.01;84.51
59043;BME280;44826;51.596;5.624;2023-03-15T00:55:29;101132.91;;;2.00;84.88
59043;BME280;44826;51.596;5.624;2023-03-15T00:57:55;101134.56;;;1.97;84.58
59043;BME280;44826;51.596;5.624;2023-03-15T01:00:21;101134.56;;;1.96;85.10
59043;BME280;44826;51.596;5.624;2023-03-15T01:02:50;101145.69;;;1.96;85.25
59043;BME280;44826;51.596;5.624;2023-03-15T01:05:15;101138.88;;;1.99;85.11
59043;BME280;44826;51.596;5.624;2023-03-15T01:07:41;101134.59;;;1.99;84.99
59043;BME280;44826;51.596;5.624;2023-03-15T01:10:10;101135.50;;;2.03;85.11
59043;BME280;44826;51.596;5.624;2023-03-15T01:12:36;101144.94;;;2.04;85.52
59043;BME280;44826;51.596;5.624;2023-03-15T01:15:05;101146.66;;;2.06;85.33
59043;BME280;44826;51.596;5.624;2023-03-15T01:17:31;101140.66;;;2.06;85.55
59043;BME280;44826;51.596;5.624;2023-03-15T01:19:57;101148.41;;;2.07;85.11
59043;BME280;44826;51.596;5.624;2023-03-15T01:22:23;101161.25;;;2.09;85.81
59043;BME280;44826;51.596;5.624;2023-03-15T01:24:48;101162.13;;;2.09;85.92
59043;BME280;44826;51.596;5.624;2023-03-15T01:27:14;101163.03;;;2.13;86.34
59043;BME280;44826;51.596;5.624;2023-03-15T01:29:39;101178.41;;;2.11;86.19
59043;BME280;44826;51.596;5.624;2023-03-15T01:32:05;101182.66;;;2.09;85.99
59043;BME280;44826;51.596;5.624;2023-03-15T01:34:30;101186.00;;;2.07;85.77
59043;BME280;44826;51.596;5.624;2023-03-15T01:36:55;101185.06;;;1.99;85.04
59043;BME280;44826;51.596;5.624;2023-03-15T01:39:20;101193.47;;;1.91;85.08
59043;BME280;44826;51.596;5.624;2023-03-15T01:41:46;101207.88;;;1.81;84.76
59043;BME280;44826;51.596;5.624;2023-03-15T01:44:16;101207.72;;;1.71;84.62
59043;BME280;44826;51.596;5.624;2023-03-15T01:46:41;101198.13;;;1.60;84.08
59043;BME280;44826;51.596;5.624;2023-03-15T01:49:23;101192.78;;;1.48;84.81
59043;BME280;44826;51.596;5.624;2023-03-15T01:52:01;101187.53;;;1.42;84.68
59043;BME280;44826;51.596;5.624;2023-03-15T01:54:37;101203.75;;;1.39;84.80
59043;BME280;44826;51.596;5.624;2023-03-15T01:57:08;101202.00;;;1.36;84.78
59043;BME280;44826;51.596;5.624;2023-03-15T01:59:43;101206.22;;;1.34;85.25
59043;BME280;44826;51.596;5.624;2023-03-15T02:02:10;101199.38;;;1.33;84.88
59043;BME280;44826;51.596;5.624;2023-03-15T02:04:45;101210.53;;;1.35;85.44
59043;BME280;44826;51.596;5.624;2023-03-15T02:07:15;101215.66;;;1.35;85.12
59043;BME280;44826;51.596;5.624;2023-03-15T02:09:53;101207.03;;;1.32;85.92
59043;BME280;44826;51.596;5.624;2023-03-15T02:12:21;101214.69;;;1.30;85.64
59043;BME280;44826;51.596;5.624;2023-03-15T02:14:48;101213.88;;;1.31;86.09
59043;BME280;44826;51.596;5.624;2023-03-15T02:17:13;101209.56;;;1.30;86.27
59043;BME280;44826;51.596;5.624;2023-03-15T02:20:01;101226.75;;;1.34;86.27
59043;BME280;44826;51.596;5.624;2023-03-15T02:22:46;101223.28;;;1.32;86.73
59043;BME280;44826;51.596;5.624;2023-03-15T02:27:58;101222.38;;;1.30;86.67
59043;BME280;44826;51.596;5.624;2023-03-15T02:30:25;101223.22;;;1.29;86.88
59043;BME280;44826;51.596;5.624;2023-03-15T02:32:50;101223.22;;;1.29;87.07
59043;BME280;44826;51.596;5.624;2023-03-15T02:35:27;101213.09;;;1.35;87.49
59043;BME280;44826;51.596;5.624;2023-03-15T02:37:53;101218.31;;;1.42;87.65
59043;BME280;44826;51.596;5.624;2023-03-15T02:40:21;101225.25;;;1.47;87.40
59043;BME280;44826;51.596;5.624;2023-03-15T02:42:50;101218.44;;;1.49;87.17
59043;BME280;44826;51.596;5.624;2023-03-15T02:45:18;101221.94;;;1.53;87.38
59043;BME280;44826;51.596;5.624;2023-03-15T02:47:44;101225.47;;;1.60;87.36
59043;BME280;44826;51.596;5.624;2023-03-15T02:50:11;101228.94;;;1.63;87.25
59043;BME280;44826;51.596;5.624;2023-03-15T02:52:36;101223.00;;;1.66;87.48
59043;BME280;44826;51.596;5.624;2023-03-15T02:55:01;101233.31;;;1.69;87.85
59043;BME280;44826;51.596;5.624;2023-03-15T02:57:26;101233.38;;;1.71;88.08
59043;BME280;44826;51.596;5.624;2023-03-15T02:59:52;101241.09;;;1.74;88.08
59043;BME280;44826;51.596;5.624;2023-03-15T03:02:19;101240.25;;;1.75;87.89
59043;BME280;44826;51.596;5.624;2023-03-15T03:04:44;101247.16;;;1.77;88.17
59043;BME280;44826;51.596;5.624;2023-03-15T03:07:09;101247.19;;;1.80;88.09
59043;BME280;44826;51.596;5.624;2023-03-15T03:09:35;101242.06;;;1.80;88.33
59043;BME280;44826;51.596;5.624;2023-03-15T03:12:00;101249.78;;;1.82;88.08
59043;BME280;44826;51.596;5.624;2023-03-15T03:14:25;101254.91;;;1.82;87.93
59043;BME280;44826;51.596;5.624;2023-03-15T03:16:51;101260.88;;;1.81;88.23
59043;BME280;44826;51.596;5.624;2023-03-15T03:19:16;101262.56;;;1.80;88.23
59043;BME280;44826;51.596;5.624;2023-03-15T03:21:42;101266.88;;;1.81;87.97
59043;BME280;44826;51.596;5.624;2023-03-15T03:24:08;101274.63;;;1.83;88.14
59043;BME280;44826;51.596;5.624;2023-03-15T03:26:33;101279.75;;;1.83;88.19
59043;BME280;44826;51.596;5.624;2023-03-15T03:28:58;101282.25;;;1.81;87.50
59043;BME280;44826;51.596;5.624;2023-03-15T03:31:25;101283.16;;;1.82;87.90
59043;BME280;44826;51.596;5.624;2023-03-15T03:33:51;101286.50;;;1.79;88.24
59043;BME280;44826;51.596;5.624;2023-03-15T03:36:17;101293.34;;;1.80;88.16
59043;BME280;44826;51.596;5.624;2023-03-15T03:38:44;101295.06;;;1.80;88.40
59043;BME280;44826;51.596;5.624;2023-03-15T03:41:11;101299.31;;;1.78;88.09
59043;BME280;44826;51.596;5.624;2023-03-15T03:43:37;101304.38;;;1.75;88.42
59043;BME280;44826;51.596;5.624;2023-03-15T03:46:02;101307.75;;;1.72;88.35
59043;BME280;44826;51.596;5.624;2023-03-15T03:48:28;101314.56;;;1.72;88.22
59043;BME280;44826;51.596;5.624;2023-03-15T03:50:53;101310.31;;;1.72;89.06
59043;BME280;44826;51.596;5.624;2023-03-15T03:53:19;101316.34;;;1.74;88.78
59043;BME280;44826;51.596;5.624;2023-03-15T03:55:44;101309.56;;;1.76;89.34
59043;BME280;44826;51.596;5.624;2023-03-15T03:58:10;101317.28;;;1.79;89.48
59043;BME280;44826;51.596;5.624;2023-03-15T04:00:36;101321.63;;;1.82;89.72
59043;BME280;44826;51.596;5.624;2023-03-15T04:03:02;101324.25;;;1.85;89.41
59043;BME280;44826;51.596;5.624;2023-03-15T04:05:27;101321.69;;;1.85;89.23
59043;BME280;44826;51.596;5.624;2023-03-15T04:07:53;101328.53;;;1.86;89.34
59043;BME280;44826;51.596;5.624;2023-03-15T04:10:19;101331.97;;;1.87;88.98
59043;BME280;44826;51.596;5.624;2023-03-15T04:12:52;101337.94;;;1.86;88.73
59043;BME280;44826;51.596;5.624;2023-03-15T04:15:17;101331.94;;;1.85;89.03
59043;BME280;44826;51.596;5.624;2023-03-15T04:17:43;101339.66;;;1.85;89.25
59043;BME280;44826;51.596;5.624;2023-03-15T04:20:08;101343.91;;;1.85;89.15
59043;BME280;44826;51.596;5.624;2023-03-15T04:22:36;101354.09;;;1.81;89.18
59043;BME280;44826;51.596;5.624;2023-03-15T04:25:02;101357.47;;;1.79;89.31
59043;BME280;44826;51.596;5.624;2023-03-15T04:27:28;101359.16;;;1.77;88.85
59043;BME280;44826;51.596;5.624;2023-03-15T04:29:54;101368.56;;;1.76;88.37
59043;BME280;44826;51.596;5.624;2023-03-15T04:32:20;101372.78;;;1.74;87.83
59043;BME280;44826;51.596;5.624;2023-03-15T04:34:45;101377.03;;;1.72;87.73
59043;BME280;44826;51.596;5.624;2023-03-15T04:37:15;101376.94;;;1.67;87.82
59043;BME280;44826;51.596;5.624;2023-03-15T04:39:41;101378.63;;;1.67;87.97
59043;BME280;44826;51.596;5.624;2023-03-15T04:42:07;101379.44;;;1.64;88.15
59043;BME280;44826;51.596;5.624;2023-03-15T04:44:32;101389.63;;;1.61;88.66
59043;BME280;44826;51.596;5.624;2023-03-15T04:46:57;101386.22;;;1.61;88.49
59043;BME280;44826;51.596;5.624;2023-03-15T04:49:23;101389.56;;;1.58;88.40
59043;BME280;44826;51.596;5.624;2023-03-15T04:51:48;101390.38;;;1.56;88.33
59043;BME280;44826;51.596;5.624;2023-03-15T04:54:13;101390.31;;;1.52;88.40
59043;BME280;44826;51.596;5.624;2023-03-15T04:56:39;101391.13;;;1.50;88.73
59043;BME280;44826;51.596;5.624;2023-03-15T04:59:06;101396.19;;;1.48;88.60
59043;BME280;44826;51.596;5.624;2023-03-15T05:01:32;101396.19;;;1.47;88.58
59043;BME280;44826;51.596;5.624;2023-03-15T05:03:57;101400.44;;;1.46;88.61
59043;BME280;44826;51.596;5.624;2023-03-15T05:06:22;101414.06;;;1.44;88.26
59043;BME280;44826;51.596;5.624;2023-03-15T05:08:48;101416.56;;;1.41;88.58
59043;BME280;44826;51.596;5.624;2023-03-15T05:11:13;101412.22;;;1.36;88.25
59043;BME280;44826;51.596;5.624;2023-03-15T05:13:39;101426.69;;;1.34;88.11
59043;BME280;44826;51.596;5.624;2023-03-15T05:16:04;101424.91;;;1.32;88.08
59043;BME280;44826;51.596;5.624;2023-03-15T05:18:29;101429.19;;;1.31;87.90
59043;BME280;44826;51.596;5.624;2023-03-15T05:20:55;101427.41;;;1.29;87.96
59043;BME280;44826;51.596;5.624;2023-03-15T05:23:21;101417.03;;;1.23;88.16
59043;BME280;44826;51.596;5.624;2023-03-15T05:25:50;101428.94;;;1.20;87.99
59043;BME280;44826;51.596;5.624;2023-03-15T05:28:18;101422.88;;;1.17;87.91
59043;BME280;44826;51.596;5.624;2023-03-15T05:30:43;101424.56;;;1.15;88.15
59043;BME280;44826;51.596;5.624;2023-03-15T05:33:09;101424.47;;;1.12;88.18
59043;BME280;44826;51.596;5.624;2023-03-15T05:35:35;101427.03;;;1.12;88.42
59043;BME280;44826;51.596;5.624;2023-03-15T05:38:00;101433.00;;;1.11;88.14
59043;BME280;44826;51.596;5.624;2023-03-15T05:40:25;101437.22;;;1.09;88.04
59043;BME280;44826;51.596;5.624;2023-03-15T05:42:54;101439.75;;;1.07;87.82
59043;BME280;44826;51.596;5.624;2023-03-15T05:45:19;101444.81;;;1.05;87.76
59043;BME280;44826;51.596;5.624;2023-03-15T05:47:45;101441.34;;;1.03;88.03
59043;BME280;44826;51.596;5.624;2023-03-15T05:50:10;101449.91;;;1.02;88.19
59043;BME280;44826;51.596;5.624;2023-03-15T05:52:35;101458.34;;;1.00;87.92
59043;BME280;44826;51.596;5.624;2023-03-15T05:55:01;101460.06;;;0.99;87.53
59043;BME280;44826;51.596;5.624;2023-03-15T05:57:26;101464.28;;;0.97;88.18
59043;BME280;44826;51.596;5.624;2023-03-15T05:59:51;101463.38;;;0.95;88.06
59043;BME280;44826;51.596;5.624;2023-03-15T06:02:16;101473.63;;;0.95;88.49
59043;BME280;44826;51.596;5.624;2023-03-15T06:04:42;101473.56;;;0.92;88.67
59043;BME280;44826;51.596;5.624;2023-03-15T06:07:07;101478.59;;;0.89;88.70
59043;BME280;44826;51.596;5.624;2023-03-15T06:09:32;101480.25;;;0.87;89.01
59043;BME280;44826;51.596;5.624;2023-03-15T06:11:58;101482.81;;;0.87;89.19
59043;BME280;44826;51.596;5.624;2023-03-15T06:14:24;101488.75;;;0.86;88.87
59043;BME280;44826;51.596;5.624;2023-03-15T06:16:50;101488.72;;;0.84;89.30
59043;BME280;44826;51.596;5.624;2023-03-15T06:19:15;101483.59;;;0.83;89.45
59043;BME280;44826;51.596;5.624;2023-03-15T06:21:41;101493.00;;;0.84;89.57
59043;BME280;44826;51.596;5.624;2023-03-15T06:24:06;101502.44;;;0.85;89.36
59043;BME280;44826;51.596;5.624;2023-03-15T06:26:31;101506.69;;;0.86;89.72
59043;BME280;44826;51.596;5.624;2023-03-15T06:28:57;101511.00;;;0.87;89.61
59043;BME280;44826;51.596;5.624;2023-03-15T06:31:22;101511.03;;;0.88;89.53
59043;BME280;44826;51.596;5.624;2023-03-15T06:33:47;101511.97;;;0.90;89.93
59043;BME280;44826;51.596;5.624;2023-03-15T06:36:13;101521.47;;;0.96;89.93
59043;BME280;44826;51.596;5.624;2023-03-15T06:38:39;101528.44;;;1.02;89.98
59043;BME280;44826;51.596;5.624;2023-03-15T06:41:06;101537.13;;;1.07;90.01
59043;BME280;44826;51.596;5.624;2023-03-15T06:43:33;101539.88;;;1.15;90.58
59043;BME280;44826;51.596;5.624;2023-03-15T06:45:58;101542.56;;;1.21;90.20
59043;BME280;44826;51.596;5.624;2023-03-15T06:48:24;101555.63;;;1.30;89.93
59043;BME280;44826;51.596;5.624;2023-03-15T06:50:50;101554.88;;;1.34;90.12
59043;BME280;44826;51.596;5.624;2023-03-15T06:53:15;101555.00;;;1.41;89.85
59043;BME280;44826;51.596;5.624;2023-03-15T06:55:42;101557.66;;;1.45;90.09
59043;BME280;44826;51.596;5.624;2023-03-15T06:58:07;101565.56;;;1.53;90.56
59043;BME280;44826;51.596;5.624;2023-03-15T07:00:32;101572.56;;;1.60;90.18
59043;BME280;44826;51.596;5.624;2023-03-15T07:02:58;101573.56;;;1.67;90.42
59043;BME280;44826;51.596;5.624;2023-03-15T07:05:23;101569.44;;;1.74;90.20
59043;BME280;44826;51.596;5.624;2023-03-15T07:07:48;101579.00;;;1.81;89.86
59043;BME280;44826;51.596;5.624;2023-03-15T07:10:14;101585.94;;;1.85;89.75
59043;BME280;44826;51.596;5.624;2023-03-15T07:12:39;101584.25;;;1.86;89.56
59043;BME280;44826;51.596;5.624;2023-03-15T07:15:04;101591.09;;;1.87;89.60
59043;BME280;44826;51.596;5.624;2023-03-15T07:17:30;101591.19;;;1.90;89.82
59043;BME280;44826;51.596;5.624;2023-03-15T07:19:55;101597.31;;;1.96;90.27
59043;BME280;44826;51.596;5.624;2023-03-15T07:22:20;101604.25;;;2.01;90.06
59043;BME280;44826;51.596;5.624;2023-03-15T07:24:47;101609.50;;;2.07;90.19
59043;BME280;44826;51.596;5.624;2023-03-15T07:27:13;101608.66;;;2.08;89.80
59043;BME280;44826;51.596;5.624;2023-03-15T07:29:39;101617.31;;;2.11;90.07
59043;BME280;44826;51.596;5.624;2023-03-15T07:32:04;101621.66;;;2.14;89.82
59043;BME280;44826;51.596;5.624;2023-03-15T07:34:30;101624.22;;;2.16;89.96
59043;BME280;44826;51.596;5.624;2023-03-15T07:36:55;101630.34;;;2.21;89.32
59043;BME280;44826;51.596;5.624;2023-03-15T07:39:21;101628.66;;;2.21;89.61
59043;BME280;44826;51.596;5.624;2023-03-15T07:41:47;101633.78;;;2.21;89.66
59043;BME280;44826;51.596;5.624;2023-03-15T07:44:12;101631.22;;;2.21;89.87
59043;BME280;44826;51.596;5.624;2023-03-15T07:46:38;101637.22;;;2.22;89.34
59043;BME280;44826;51.596;5.624;2023-03-15T07:49:03;101638.94;;;2.23;90.06
59043;BME280;44826;51.596;5.624;2023-03-15T07:51:28;101644.09;;;2.24;90.31
59043;BME280;44826;51.596;5.624;2023-03-15T07:53:54;101654.44;;;2.27;89.81
59043;BME280;44826;51.596;5.624;2023-03-15T07:56:19;101654.50;;;2.31;90.20
59043;BME280;44826;51.596;5.624;2023-03-15T07:58:44;101660.56;;;2.33;89.75
59043;BME280;44826;51.596;5.624;2023-03-15T08:01:10;101659.78;;;2.37;88.96
59043;BME280;44826;51.596;5.624;2023-03-15T08:03:35;101666.72;;;2.41;89.82
59043;BME280;44826;51.596;5.624;2023-03-15T08:06:00;101656.50;;;2.44;88.75
59043;BME280;44826;51.596;5.624;2023-03-15T08:08:26;101668.50;;;2.45;88.45
59043;BME280;44826;51.596;5.624;2023-03-15T08:10:51;101671.97;;;2.47;88.68
59043;BME280;44826;51.596;5.624;2023-03-15T08:13:16;101677.13;;;2.49;88.60
59043;BME280;44826;51.596;5.624;2023-03-15T08:15:45;101689.19;;;2.51;87.95
59043;BME280;44826;51.596;5.624;2023-03-15T08:18:11;101693.44;;;2.51;88.57
59043;BME280;44826;51.596;5.624;2023-03-15T08:20:36;101697.84;;;2.56;87.91
59043;BME280;44826;51.596;5.624;2023-03-15T08:23:02;101701.31;;;2.57;88.26
59043;BME280;44826;51.596;5.624;2023-03-15T08:25:27;101709.88;;;2.57;87.44
59043;BME280;44826;51.596;5.624;2023-03-15T08:27:53;101704.88;;;2.64;86.82
59043;BME280;44826;51.596;5.624;2023-03-15T08:30:19;101714.28;;;2.63;86.71
59043;BME280;44826;51.596;5.624;2023-03-15T08:32:47;101716.88;;;2.65;87.83
59043;BME280;44826;51.596;5.624;2023-03-15T08:35:13;101718.63;;;2.66;86.87
59043;BME280;44826;51.596;5.624;2023-03-15T08:37:39;101716.94;;;2.68;86.73
59043;BME280;44826;51.596;5.624;2023-03-15T08:40:06;101723.84;;;2.70;86.22
59043;BME280;44826;51.596;5.624;2023-03-15T08:42:36;101722.09;;;2.68;86.34
59043;BME280;44826;51.596;5.624;2023-03-15T08:45:05;101718.75;;;2.72;86.96
59043;BME280;44826;51.596;5.624;2023-03-15T08:47:32;101720.53;;;2.76;87.10
59043;BME280;44826;51.596;5.624;2023-03-15T08:50:00;101725.75;;;2.79;86.12
59043;BME280;44826;51.596;5.624;2023-03-15T08:52:26;101724.13;;;2.84;86.97
59043;BME280;44826;51.596;5.624;2023-03-15T08:54:52;101733.66;;;2.88;86.01
59043;BME280;44826;51.596;5.624;2023-03-15T08:57:17;101736.25;;;2.92;85.02
59043;BME280;44826;51.596;5.624;2023-03-15T08:59:42;101738.88;;;2.93;84.59
59043;BME280;44826;51.596;5.624;2023-03-15T09:02:09;101747.50;;;2.95;84.41
59043;BME280;44826;51.596;5.624;2023-03-15T09:04:35;101749.25;;;2.98;84.00
59043;BME280;44826;51.596;5.624;2023-03-15T09:07:00;101745.06;;;3.03;84.39
59043;BME280;44826;51.596;5.624;2023-03-15T09:09:26;101751.16;;;3.08;84.67
59043;BME280;44826;51.596;5.624;2023-03-15T09:11:51;101746.97;;;3.13;83.73
59043;BME280;44826;51.596;5.624;2023-03-15T09:14:16;101748.78;;;3.17;82.92
59043;BME280;44826;51.596;5.624;2023-03-15T09:16:42;101748.84;;;3.21;82.90
59043;BME280;44826;51.596;5.624;2023-03-15T09:19:07;101754.91;;;3.24;81.44
59043;BME280;44826;51.596;5.624;2023-03-15T09:21:33;101745.47;;;3.25;81.10
59043;BME280;44826;51.596;5.624;2023-03-15T09:23:58;101757.56;;;3.29;81.00
59043;BME280;44826;51.596;5.624;2023-03-15T09:26:23;101750.78;;;3.32;80.91
59043;BME280;44826;51.596;5.624;2023-03-15T09:28:49;101749.13;;;3.36;81.21
59043;BME280;44826;51.596;5.624;2023-03-15T09:31:14;101760.41;;;3.41;81.58
59043;BME280;44826;51.596;5.624;2023-03-15T09:33:39;101745.03;;;3.46;81.26
59043;BME280;44826;51.596;5.624;2023-03-15T09:36:05;101746.84;;;3.50;80.13
59043;BME280;44826;51.596;5.624;2023-03-15T09:38:31;101752.00;;;3.53;78.36
59043;BME280;44826;51.596;5.624;2023-03-15T09:40:57;101752.94;;;3.57;78.85
59043;BME280;44826;51.596;5.624;2023-03-15T09:52:03;101758.56;;;3.85;78.86
59043;BME280;44826;51.596;5.624;2023-03-15T09:54:38;101761.25;;;3.91;77.42
59043;BME280;44826;51.596;5.624;2023-03-15T09:57:09;101767.38;;;3.99;77.46
59043;BME280;44826;51.596;5.624;2023-03-15T09:59:40;101761.50;;;4.06;76.89
59043;BME280;44826;51.596;5.624;2023-03-15T10:02:22;101765.91;;;4.14;76.84
59043;BME280;44826;51.596;5.624;2023-03-15T10:04:51;101767.78;;;4.24;75.32
59043;BME280;44826;51.596;5.624;2023-03-15T10:07:20;101768.81;;;4.34;76.04
59043;BME280;44826;51.596;5.624;2023-03-15T10:09:45;101770.59;;;4.41;74.24
59043;BME280;44826;51.596;5.624;2023-03-15T10:12:15;101776.75;;;4.51;74.90
59043;BME280;44826;51.596;5.624;2023-03-15T10:17:46;101771.97;;;4.76;74.74
59043;BME280;44826;51.596;5.624;2023-03-15T10:20:17;101772.91;;;4.84;74.90
59043;BME280;44826;51.596;5.624;2023-03-15T10:22:55;101765.19;;;4.84;74.25
59043;BME280;44826;51.596;5.624;2023-03-15T10:25:23;101775.53;;;4.85;74.68
59043;BME280;44826;51.596;5.624;2023-03-15T10:27:56;101785.81;;;4.84;72.94
59043;BME280;44826;51.596;5.624;2023-03-15T10:30:26;101774.59;;;4.80;73.96
59043;BME280;44826;51.596;5.624;2023-03-15T10:32:58;101778.13;;;4.89;74.30
59043;BME280;44826;51.596;5.624;2023-03-15T10:35:25;101783.47;;;5.04;74.64
59043;BME280;44826;51.596;5.624;2023-03-15T10:37:51;101781.91;;;5.15;70.45
59043;BME280;44826;51.596;5.624;2023-03-15T10:43:26;101775.25;;;5.33;70.86
59043;BME280;44826;51.596;5.624;2023-03-15T10:46:01;101781.38;;;5.44;71.51
59043;BME280;44826;51.596;5.624;2023-03-15T10:49:16;101777.13;;;5.51;71.58
59043;BME280;44826;51.596;5.624;2023-03-15T10:51:27;101783.25;;;5.59;71.12
59043;BME280;44826;51.596;5.624;2023-03-15T10:54:01;101791.03;;;5.62;69.14
59043;BME280;44826;51.596;5.624;2023-03-15T10:56:33;101791.91;;;5.65;68.97
59043;BME280;44826;51.596;5.624;2023-03-15T10:58:59;101791.94;;;5.66;66.82
59043;BME280;44826;51.596;5.624;2023-03-15T11:01:30;101789.34;;;5.68;65.41
59043;BME280;44826;51.596;5.624;2023-03-15T11:04:12;101797.97;;;5.70;67.96
59043;BME280;44826;51.596;5.624;2023-03-15T11:06:44;101807.47;;;5.71;67.66
59043;BME280;44826;51.596;5.624;2023-03-15T11:09:13;101810.03;;;5.71;66.56
59043;BME280;44826;51.596;5.624;2023-03-15T11:15:11;101807.56;;;5.80;65.69
59043;BME280;44826;51.596;5.624;2023-03-15T11:17:46;101801.56;;;5.83;67.69
59043;BME280;44826;51.596;5.624;2023-03-15T11:20:29;101814.53;;;5.89;65.93
59043;BME280;44826;51.596;5.624;2023-03-15T11:22:56;101815.38;;;5.91;65.63
59043;BME280;44826;51.596;5.624;2023-03-15T11:25:27;101823.16;;;5.94;65.17
59043;BME280;44826;51.596;5.624;2023-03-15T11:27:55;101821.50;;;5.98;62.34
59043;BME280;44826;51.596;5.624;2023-03-15T11:30:26;101826.72;;;6.01;63.55
59043;BME280;44826;51.596;5.624;2023-03-15T11:32:52;101827.59;;;6.03;63.29
59043;BME280;44826;51.596;5.624;2023-03-15T11:35:25;101822.41;;;6.03;62.97
59043;BME280;44826;51.596;5.624;2023-03-15T11:37:59;101825.91;;;6.08;62.73
59043;BME280;44826;51.596;5.624;2023-03-15T11:40:39;101823.38;;;6.11;61.92
59043;BME280;44826;51.596;5.624;2023-03-15T11:43:26;101816.50;;;6.15;60.90
59043;BME280;44826;51.596;5.624;2023-03-15T11:45:57;101816.56;;;6.21;58.20
59043;BME280;44826;51.596;5.624;2023-03-15T11:48:41;101813.19;;;6.33;62.73
59043;BME280;44826;51.596;5.624;2023-03-15T11:51:10;101811.50;;;6.38;58.81
59043;BME280;44826;51.596;5.624;2023-03-15T11:53:41;101808.13;;;6.45;59.08
59043;BME280;44826;51.596;5.624;2023-03-15T11:56:20;101810.69;;;6.44;61.48
59043;BME280;44826;51.596;5.624;2023-03-15T11:59:08;101812.38;;;6.42;60.92
59043;BME280;44826;51.596;5.624;2023-03-15T12:01:41;101816.78;;;6.53;58.21
59043;BME280;44826;51.596;5.624;2023-03-15T12:04:36;101799.56;;;6.56;61.92
59043;BME280;44826;51.596;5.624;2023-03-15T12:07:21;101811.59;;;6.47;57.96
59043;BME280;44826;51.596;5.624;2023-03-15T12:17:38;101807.13;;;6.28;58.31
59043;BME280;44826;51.596;5.624;2023-03-15T12:20:15;101811.44;;;6.26;58.70
59043;BME280;44826;51.596;5.624;2023-03-15T12:22:48;101802.97;;;6.45;58.45
59043;BME280;44826;51.596;5.624;2023-03-15T12:25:19;101808.31;;;6.76;59.57
59043;BME280;44826;51.596;5.624;2023-03-15T12:27:51;101800.66;;;6.95;56.81
59043;BME280;44826;51.596;5.624;2023-03-15T12:30:23;101799.81;;;6.97;58.52
59043;BME280;44826;51.596;5.624;2023-03-15T12:32:52;101805.78;;;6.89;58.68
59043;BME280;44826;51.596;5.624;2023-03-15T12:35:20;101807.53;;;6.93;58.48
59043;BME280;44826;51.596;5.624;2023-03-15T12:37:49;101807.56;;;6.91;57.41
59043;BME280;44826;51.596;5.624;2023-03-15T12:55:57;101796.25;;;6.75;57.13
59043;BME280;44826;51.596;5.624;2023-03-15T12:58:28;101795.38;;;6.72;53.33
59043;BME280;44826;51.596;5.624;2023-03-15T13:01:00;101803.97;;;6.67;51.73
59043;BME280;44826;51.596;5.624;2023-03-15T13:03:27;101808.25;;;6.65;54.38
59043;BME280;44826;51.596;5.624;2023-03-15T13:06:05;101806.53;;;6.63;55.32
59043;BME280;44826;51.596;5.624;2023-03-15T13:09:11;101803.09;;;6.64;56.21
59043;BME280;44826;51.596;5.624;2023-03-15T13:11:49;101807.41;;;6.66;55.05
59043;BME280;44826;51.596;5.624;2023-03-15T13:14:35;101797.94;;;6.70;56.39
59043;BME280;44826;51.596;5.624;2023-03-15T13:17:31;101797.94;;;6.73;54.60
59043;BME280;44826;51.596;5.624;2023-03-15T13:22:56;101804.00;;;6.77;52.20
59043;BME280;44826;51.596;5.624;2023-03-15T13:28:37;101799.75;;;6.90;52.30
59043;BME280;44826;51.596;5.624;2023-03-15T13:31:30;101805.84;;;6.99;54.98
59043;BME280;44826;51.596;5.624;2023-03-15T13:34:09;101790.34;;;7.03;51.07
59043;BME280;44826;51.596;5.624;2023-03-15T13:36:40;101791.22;;;7.06;50.99
59043;BME280;44826;51.596;5.624;2023-03-15T13:39:16;101786.91;;;7.10;51.65
59043;BME280;44826;51.596;5.624;2023-03-15T13:41:42;101789.53;;;7.14;52.30
59043;BME280;44826;51.596;5.624;2023-03-15T13:44:21;101780.91;;;7.22;55.22
59043;BME280;44826;51.596;5.624;2023-03-15T13:46:48;101780.97;;;7.39;52.36
59043;BME280;44826;51.596;5.624;2023-03-15T13:49:15;101788.81;;;7.67;51.85
59043;BME280;44826;51.596;5.624;2023-03-15T13:51:41;101784.53;;;7.94;51.44
59043;BME280;44826;51.596;5.624;2023-03-15T13:56:51;101796.59;;;8.40;50.14
59043;BME280;44826;51.596;5.624;2023-03-15T13:59:19;101794.88;;;8.57;56.17